sensor_id;sensor_type;location;lat;lon;timestamp;temperature;humidity
73137;DHT22;67767;45.636;11.756;2023-04-25T00:00:26;14.60;85.20
73137;DHT22;67767;45.636;11.756;2023-04-25T00:02:51;14.50;85.40
73137;DHT22;67767;45.636;11.756;2023-04-25T00:05:17;14.50;85.70
73137;DHT22;67767;45.636;11.756;2023-04-25T00:07:43;14.50;85.90
73137;DHT22;67767;45.636;11.756;2023-04-25T00:10:09;14.40;86.10
73137;DHT22;67767;45.636;11.756;2023-04-25T00:12:36;14.30;86.20
73137;DHT22;67767;45.636;11.756;2023-04-25T00:15:03;14.20;86.40
73137;DHT22;67767;45.636;11.756;2023-04-25T00:17:29;14.10;86.40
73137;DHT22;67767;45.636;11.756;2023-04-25T00:19:55;14.20;86.20
73137;DHT22;67767;45.636;11.756;2023-04-25T00:22:21;14.20;86.20
73137;DHT22;67767;45.636;11.756;2023-04-25T00:24:47;14.20;86.00
73137;DHT22;67767;45.636;11.756;2023-04-25T00:27:12;14.20;86.00
73137;DHT22;67767;45.636;11.756;2023-04-25T00:29:38;14.30;86.10
73137;DHT22;67767;45.636;11.756;2023-04-25T00:32:04;14.20;86.00
73137;DHT22;67767;45.636;11.756;2023-04-25T00:34:29;14.20;86.00
73137;DHT22;67767;45.636;11.756;2023-04-25T00:36:55;14.20;86.20
73137;DHT22;67767;45.636;11.756;2023-04-25T00:39:21;14.10;86.30
73137;DHT22;67767;45.636;11.756;2023-04-25T00:41:46;14.10;86.40
73137;DHT22;67767;45.636;11.756;2023-04-25T00:44:13;14.10;86.70
73137;DHT22;67767;45.636;11.756;2023-04-25T00:46:42;14.00;86.70
73137;DHT22;67767;45.636;11.756;2023-04-25T00:49:08;13.90;87.00
73137;DHT22;67767;45.636;11.756;2023-04-25T00:51:33;13.90;87.30
73137;DHT22;67767;45.636;11.756;2023-04-25T00:53:59;13.90;87.20
73137;DHT22;67767;45.636;11.756;2023-04-25T00:56:25;13.80;87.50
73137;DHT22;67767;45.636;11.756;2023-04-25T00:58:53;13.90;87.40
73137;DHT22;67767;45.636;11.756;2023-04-25T01:01:22;13.80;87.90
73137;DHT22;67767;45.636;11.756;2023-04-25T01:03:49;13.90;87.40
73137;DHT22;67767;45.636;11.756;2023-04-25T01:06:15;13.90;87.70
73137;DHT22;67767;45.636;11.756;2023-04-25T01:08:41;13.80;87.90
73137;DHT22;67767;45.636;11.756;2023-04-25T01:11:07;13.80;87.90
73137;DHT22;67767;45.636;11.756;2023-04-25T01:13:33;13.80;88.10
73137;DHT22;67767;45.636;11.756;2023-04-25T01:15:59;13.80;88.10
73137;DHT22;67767;45.636;11.756;2023-04-25T01:18:25;13.80;88.30
73137;DHT22;67767;45.636;11.756;2023-04-25T01:20:52;13.70;88.50
73137;DHT22;67767;45.636;11.756;2023-04-25T01:23:20;13.80;88.70
73137;DHT22;67767;45.636;11.756;2023-04-25T01:25:45;13.80;88.70
73137;DHT22;67767;45.636;11.756;2023-04-25T01:28:12;13.70;88.40
73137;DHT22;67767;45.636;11.756;2023-04-25T01:30:38;13.80;88.00
73137;DHT22;67767;45.636;11.756;2023-04-25T01:33:04;13.80;87.80
73137;DHT22;67767;45.636;11.756;2023-04-25T01:35:31;13.90;87.80
73137;DHT22;67767;45.636;11.756;2023-04-25T01:37:57;13.80;87.60
73137;DHT22;67767;45.636;11.756;2023-04-25T01:40:24;13.80;87.90
73137;DHT22;67767;45.636;11.756;2023-04-25T01:42:51;13.70;87.60
73137;DHT22;67767;45.636;11.756;2023-04-25T01:45:17;13.70;87.40
73137;DHT22;67767;45.636;11.756;2023-04-25T01:47:43;13.80;87.30
73137;DHT22;67767;45.636;11.756;2023-04-25T01:50:12;13.60;87.60
73137;DHT22;67767;45.636;11.756;2023-04-25T01:52:38;13.60;88.00
73137;DHT22;67767;45.636;11.756;2023-04-25T01:55:06;13.60;88.10
73137;DHT22;67767;45.636;11.756;2023-04-25T01:57:31;13.60;87.80
73137;DHT22;67767;45.636;11.756;2023-04-25T02:00:03;13.60;88.00
73137;DHT22;67767;45.636;11.756;2023-04-25T02:02:29;13.60;87.60
73137;DHT22;67767;45.636;11.756;2023-04-25T02:04:55;13.60;88.20
73137;DHT22;67767;45.636;11.756;2023-04-25T02:07:21;13.70;87.80
73137;DHT22;67767;45.636;11.756;2023-04-25T02:09:47;13.60;87.80
73137;DHT22;67767;45.636;11.756;2023-04-25T02:12:13;13.60;87.70
73137;DHT22;67767;45.636;11.756;2023-04-25T02:14:39;13.70;87.80
73137;DHT22;67767;45.636;11.756;2023-04-25T02:17:05;13.60;88.00
73137;DHT22;67767;45.636;11.756;2023-04-25T02:19:31;13.70;87.50
73137;DHT22;67767;45.636;11.756;2023-04-25T02:21:56;13.70;87.00
73137;DHT22;67767;45.636;11.756;2023-04-25T02:24:22;13.70;86.70
73137;DHT22;67767;45.636;11.756;2023-04-25T02:26:48;13.80;86.60
73137;DHT22;67767;45.636;11.756;2023-04-25T02:29:15;13.70;86.40
73137;DHT22;67767;45.636;11.756;2023-04-25T02:31:41;13.80;85.90
73137;DHT22;67767;45.636;11.756;2023-04-25T02:34:06;13.70;85.90
73137;DHT22;67767;45.636;11.756;2023-04-25T02:36:32;13.70;85.90
73137;DHT22;67767;45.636;11.756;2023-04-25T02:39:00;13.80;85.20
73137;DHT22;67767;45.636;11.756;2023-04-25T02:41:26;13.70;85.10
73137;DHT22;67767;45.636;11.756;2023-04-25T02:43:52;13.80;85.10
73137;DHT22;67767;45.636;11.756;2023-04-25T02:46:17;13.70;84.30
73137;DHT22;67767;45.636;11.756;2023-04-25T02:48:43;13.90;83.90
73137;DHT22;67767;45.636;11.756;2023-04-25T02:51:09;13.70;83.80
73137;DHT22;67767;45.636;11.756;2023-04-25T02:53:35;13.90;83.60
73137;DHT22;67767;45.636;11.756;2023-04-25T02:56:01;13.80;84.10
73137;DHT22;67767;45.636;11.756;2023-04-25T02:58:27;13.90;83.80
73137;DHT22;67767;45.636;11.756;2023-04-25T03:00:52;13.90;83.80
73137;DHT22;67767;45.636;11.756;2023-04-25T03:03:18;14.00;83.70
73137;DHT22;67767;45.636;11.756;2023-04-25T03:05:48;14.00;83.60
73137;DHT22;67767;45.636;11.756;2023-04-25T03:08:13;14.00;84.20
73137;DHT22;67767;45.636;11.756;2023-04-25T03:10:39;14.00;84.10
73137;DHT22;67767;45.636;11.756;2023-04-25T03:13:05;14.00;83.50
73137;DHT22;67767;45.636;11.756;2023-04-25T03:15:31;14.00;83.70
73137;DHT22;67767;45.636;11.756;2023-04-25T03:17:56;14.00;83.90
73137;DHT22;67767;45.636;11.756;2023-04-25T03:20:22;13.90;83.90
73137;DHT22;67767;45.636;11.756;2023-04-25T03:22:48;13.80;84.10
73137;DHT22;67767;45.636;11.756;2023-04-25T03:25:14;13.90;83.60
73137;DHT22;67767;45.636;11.756;2023-04-25T03:27:39;14.00;83.60
73137;DHT22;67767;45.636;11.756;2023-04-25T03:30:06;13.90;83.60
73137;DHT22;67767;45.636;11.756;2023-04-25T03:32:32;13.90;83.60
73137;DHT22;67767;45.636;11.756;2023-04-25T03:34:57;13.90;83.40
73137;DHT22;67767;45.636;11.756;2023-04-25T03:37:23;13.90;83.80
73137;DHT22;67767;45.636;11.756;2023-04-25T03:39:48;13.90;83.70
73137;DHT22;67767;45.636;11.756;2023-04-25T03:42:14;13.90;83.80
73137;DHT22;67767;45.636;11.756;2023-04-25T03:44:40;14.00;83.70
73137;DHT22;67767;45.636;11.756;2023-04-25T03:47:05;13.90;83.80
73137;DHT22;67767;45.636;11.756;2023-04-25T03:49:32;13.90;83.80
73137;DHT22;67767;45.636;11.756;2023-04-25T03:51:57;13.90;83.80
73137;DHT22;67767;45.636;11.756;2023-04-25T03:54:23;13.90;84.00
73137;DHT22;67767;45.636;11.756;2023-04-25T03:56:49;13.90;84.10
73137;DHT22;67767;45.636;11.756;2023-04-25T03:59:14;13.80;84.10
73137;DHT22;67767;45.636;11.756;2023-04-25T04:01:40;13.80;84.10
73137;DHT22;67767;45.636;11.756;2023-04-25T04:04:06;13.80;84.30
73137;DHT22;67767;45.636;11.756;2023-04-25T04:06:31;13.80;84.20
73137;DHT22;67767;45.636;11.756;2023-04-25T04:08:57;13.80;84.10
73137;DHT22;67767;45.636;11.756;2023-04-25T04:11:23;13.80;84.30
73137;DHT22;67767;45.636;11.756;2023-04-25T04:13:48;13.70;84.30
73137;DHT22;67767;45.636;11.756;2023-04-25T04:16:14;13.80;84.10
73137;DHT22;67767;45.636;11.756;2023-04-25T04:18:40;13.70;84.40
73137;DHT22;67767;45.636;11.756;2023-04-25T04:21:05;13.70;83.80
73137;DHT22;67767;45.636;11.756;2023-04-25T04:23:31;13.80;83.80
73137;DHT22;67767;45.636;11.756;2023-04-25T04:25:57;13.80;83.80
73137;DHT22;67767;45.636;11.756;2023-04-25T04:28:22;13.70;84.70
73137;DHT22;67767;45.636;11.756;2023-04-25T04:30:48;13.80;85.60
73137;DHT22;67767;45.636;11.756;2023-04-25T04:33:16;13.80;86.40
73137;DHT22;67767;45.636;11.756;2023-04-25T04:35:45;13.80;87.00
73137;DHT22;67767;45.636;11.756;2023-04-25T04:38:12;13.80;88.10
73137;DHT22;67767;45.636;11.756;2023-04-25T04:40:40;13.80;86.90
73137;DHT22;67767;45.636;11.756;2023-04-25T04:43:08;13.80;86.80
73137;DHT22;67767;45.636;11.756;2023-04-25T04:45:36;13.80;87.00
73137;DHT22;67767;45.636;11.756;2023-04-25T04:48:07;13.70;86.60
73137;DHT22;67767;45.636;11.756;2023-04-25T04:50:34;13.70;87.10
73137;DHT22;67767;45.636;11.756;2023-04-25T04:53:01;13.70;87.20
73137;DHT22;67767;45.636;11.756;2023-04-25T04:55:27;13.90;87.80
73137;DHT22;67767;45.636;11.756;2023-04-25T04:57:52;13.90;88.60
73137;DHT22;67767;45.636;11.756;2023-04-25T05:00:18;13.80;88.70
73137;DHT22;67767;45.636;11.756;2023-04-25T05:02:44;13.80;88.00
73137;DHT22;67767;45.636;11.756;2023-04-25T05:05:09;13.80;87.90
73137;DHT22;67767;45.636;11.756;2023-04-25T05:07:35;13.90;88.50
73137;DHT22;67767;45.636;11.756;2023-04-25T05:10:01;13.90;88.70
73137;DHT22;67767;45.636;11.756;2023-04-25T05:12:27;13.80;88.60
73137;DHT22;67767;45.636;11.756;2023-04-25T05:14:53;13.80;88.70
73137;DHT22;67767;45.636;11.756;2023-04-25T05:17:18;13.70;89.00
73137;DHT22;67767;45.636;11.756;2023-04-25T05:19:44;13.90;89.50
73137;DHT22;67767;45.636;11.756;2023-04-25T05:22:10;13.70;89.80
73137;DHT22;67767;45.636;11.756;2023-04-25T05:24:36;13.80;90.20
73137;DHT22;67767;45.636;11.756;2023-04-25T05:27:01;13.80;90.70
73137;DHT22;67767;45.636;11.756;2023-04-25T05:29:27;13.50;91.00
73137;DHT22;67767;45.636;11.756;2023-04-25T05:31:53;13.50;91.00
73137;DHT22;67767;45.636;11.756;2023-04-25T05:34:19;13.60;92.20
73137;DHT22;67767;45.636;11.756;2023-04-25T05:36:44;13.50;91.80
73137;DHT22;67767;45.636;11.756;2023-04-25T05:39:14;13.50;92.30
73137;DHT22;67767;45.636;11.756;2023-04-25T05:41:40;13.50;92.30
73137;DHT22;67767;45.636;11.756;2023-04-25T05:44:06;13.50;91.70
73137;DHT22;67767;45.636;11.756;2023-04-25T05:46:32;13.50;92.30
73137;DHT22;67767;45.636;11.756;2023-04-25T05:48:57;13.50;91.70
73137;DHT22;67767;45.636;11.756;2023-04-25T05:51:23;13.60;91.30
73137;DHT22;67767;45.636;11.756;2023-04-25T05:53:49;13.70;91.20
73137;DHT22;67767;45.636;11.756;2023-04-25T05:56:14;13.80;92.00
73137;DHT22;67767;45.636;11.756;2023-04-25T05:58:40;13.70;93.10
73137;DHT22;67767;45.636;11.756;2023-04-25T06:01:06;13.70;91.40
73137;DHT22;67767;45.636;11.756;2023-04-25T06:03:32;13.70;91.40
73137;DHT22;67767;45.636;11.756;2023-04-25T06:05:57;13.60;92.00
73137;DHT22;67767;45.636;11.756;2023-04-25T06:08:23;13.60;93.40
73137;DHT22;67767;45.636;11.756;2023-04-25T06:10:49;13.50;93.80
73137;DHT22;67767;45.636;11.756;2023-04-25T06:13:15;13.40;94.50
73137;DHT22;67767;45.636;11.756;2023-04-25T06:15:40;13.50;93.70
73137;DHT22;67767;45.636;11.756;2023-04-25T06:18:07;13.50;93.40
73137;DHT22;67767;45.636;11.756;2023-04-25T06:20:32;13.60;92.40
73137;DHT22;67767;45.636;11.756;2023-04-25T06:22:58;13.70;92.40
73137;DHT22;67767;45.636;11.756;2023-04-25T06:25:23;13.80;92.10
73137;DHT22;67767;45.636;11.756;2023-04-25T06:27:49;13.70;92.30
73137;DHT22;67767;45.636;11.756;2023-04-25T06:30:15;13.70;92.30
73137;DHT22;67767;45.636;11.756;2023-04-25T06:32:43;13.60;94.10
73137;DHT22;67767;45.636;11.756;2023-04-25T06:35:09;13.60;94.30
73137;DHT22;67767;45.636;11.756;2023-04-25T06:37:35;13.50;93.60
73137;DHT22;67767;45.636;11.756;2023-04-25T06:40:01;13.60;94.10
73137;DHT22;67767;45.636;11.756;2023-04-25T06:42:27;13.60;94.70
73137;DHT22;67767;45.636;11.756;2023-04-25T06:44:53;13.50;95.60
73137;DHT22;67767;45.636;11.756;2023-04-25T06:47:19;13.40;94.80
73137;DHT22;67767;45.636;11.756;2023-04-25T06:49:44;13.40;95.40
73137;DHT22;67767;45.636;11.756;2023-04-25T06:52:10;13.40;95.00
73137;DHT22;67767;45.636;11.756;2023-04-25T06:54:36;13.50;95.00
73137;DHT22;67767;45.636;11.756;2023-04-25T06:57:01;13.30;95.50
73137;DHT22;67767;45.636;11.756;2023-04-25T06:59:27;13.20;95.90
73137;DHT22;67767;45.636;11.756;2023-04-25T07:01:53;13.10;95.80
73137;DHT22;67767;45.636;11.756;2023-04-25T07:04:18;13.00;96.60
73137;DHT22;67767;45.636;11.756;2023-04-25T07:06:44;13.20;96.90
73137;DHT22;67767;45.636;11.756;2023-04-25T07:09:12;13.10;95.10
73137;DHT22;67767;45.636;11.756;2023-04-25T07:11:38;13.10;95.80
73137;DHT22;67767;45.636;11.756;2023-04-25T07:14:04;13.00;94.70
73137;DHT22;67767;45.636;11.756;2023-04-25T07:16:29;13.10;94.60
73137;DHT22;67767;45.636;11.756;2023-04-25T07:18:55;13.10;94.50
73137;DHT22;67767;45.636;11.756;2023-04-25T07:21:21;13.00;94.20
73137;DHT22;67767;45.636;11.756;2023-04-25T07:23:47;13.10;94.40
73137;DHT22;67767;45.636;11.756;2023-04-25T07:26:13;13.10;93.30
73137;DHT22;67767;45.636;11.756;2023-04-25T07:28:39;13.10;94.70
73137;DHT22;67767;45.636;11.756;2023-04-25T07:31:04;13.20;93.80
73137;DHT22;67767;45.636;11.756;2023-04-25T07:33:30;13.20;93.50
73137;DHT22;67767;45.636;11.756;2023-04-25T07:35:57;13.20;93.80
73137;DHT22;67767;45.636;11.756;2023-04-25T07:38:23;13.20;94.80
73137;DHT22;67767;45.636;11.756;2023-04-25T07:40:49;13.20;94.40
73137;DHT22;67767;45.636;11.756;2023-04-25T07:43:15;13.10;94.10
73137;DHT22;67767;45.636;11.756;2023-04-25T07:45:45;13.20;94.80
73137;DHT22;67767;45.636;11.756;2023-04-25T07:48:15;13.20;94.50
73137;DHT22;67767;45.636;11.756;2023-04-25T07:50:41;13.30;94.30
73137;DHT22;67767;45.636;11.756;2023-04-25T07:53:07;13.30;94.60
73137;DHT22;67767;45.636;11.756;2023-04-25T07:55:32;13.30;95.10
73137;DHT22;67767;45.636;11.756;2023-04-25T07:57:58;13.20;95.10
73137;DHT22;67767;45.636;11.756;2023-04-25T08:00:24;13.20;94.70
73137;DHT22;67767;45.636;11.756;2023-04-25T08:02:49;13.30;95.70
73137;DHT22;67767;45.636;11.756;2023-04-25T08:05:16;13.20;95.10
73137;DHT22;67767;45.636;11.756;2023-04-25T08:07:42;13.40;95.80
73137;DHT22;67767;45.636;11.756;2023-04-25T08:10:09;13.40;95.20
73137;DHT22;67767;45.636;11.756;2023-04-25T08:12:35;13.30;95.50
73137;DHT22;67767;45.636;11.756;2023-04-25T08:15:00;13.20;96.60
73137;DHT22;67767;45.636;11.756;2023-04-25T08:17:26;13.20;96.80
73137;DHT22;67767;45.636;11.756;2023-04-25T08:19:52;13.10;97.80
73137;DHT22;67767;45.636;11.756;2023-04-25T08:22:17;12.90;98.90
73137;DHT22;67767;45.636;11.756;2023-04-25T08:24:43;12.90;99.50
73137;DHT22;67767;45.636;11.756;2023-04-25T08:27:08;13.00;99.50
73137;DHT22;67767;45.636;11.756;2023-04-25T08:29:35;13.10;99.90
73137;DHT22;67767;45.636;11.756;2023-04-25T08:32:01;13.20;99.90
73137;DHT22;67767;45.636;11.756;2023-04-25T08:34:26;13.20;99.20
73137;DHT22;67767;45.636;11.756;2023-04-25T08:36:52;13.40;98.80
73137;DHT22;67767;45.636;11.756;2023-04-25T08:39:18;13.40;97.20
73137;DHT22;67767;45.636;11.756;2023-04-25T08:41:44;13.50;97.90
73137;DHT22;67767;45.636;11.756;2023-04-25T08:44:11;13.50;98.10
73137;DHT22;67767;45.636;11.756;2023-04-25T08:46:40;13.50;98.30
73137;DHT22;67767;45.636;11.756;2023-04-25T08:49:07;13.50;97.90
73137;DHT22;67767;45.636;11.756;2023-04-25T08:51:36;13.50;96.80
73137;DHT22;67767;45.636;11.756;2023-04-25T08:54:12;13.50;94.50
73137;DHT22;67767;45.636;11.756;2023-04-25T08:56:44;13.70;92.60
73137;DHT22;67767;45.636;11.756;2023-04-25T08:59:12;13.70;91.60
73137;DHT22;67767;45.636;11.756;2023-04-25T09:01:37;13.70;93.80
73137;DHT22;67767;45.636;11.756;2023-04-25T09:04:03;13.80;95.80
73137;DHT22;67767;45.636;11.756;2023-04-25T09:06:31;13.80;94.00
73137;DHT22;67767;45.636;11.756;2023-04-25T09:09:08;13.90;93.00
73137;DHT22;67767;45.636;11.756;2023-04-25T09:11:35;13.90;92.50
73137;DHT22;67767;45.636;11.756;2023-04-25T09:14:21;14.10;92.50
73137;DHT22;67767;45.636;11.756;2023-04-25T09:19:31;14.30;89.50
73137;DHT22;67767;45.636;11.756;2023-04-25T09:21:59;14.50;87.90
73137;DHT22;67767;45.636;11.756;2023-04-25T09:24:42;14.70;89.70
73137;DHT22;67767;45.636;11.756;2023-04-25T09:27:11;14.80;87.00
73137;DHT22;67767;45.636;11.756;2023-04-25T09:29:38;15.20;86.90
73137;DHT22;67767;45.636;11.756;2023-04-25T09:32:16;15.30;84.80
73137;DHT22;67767;45.636;11.756;2023-04-25T09:34:44;15.50;84.90
73137;DHT22;67767;45.636;11.756;2023-04-25T09:37:10;15.50;84.90
73137;DHT22;67767;45.636;11.756;2023-04-25T09:39:39;15.20;83.90
73137;DHT22;67767;45.636;11.756;2023-04-25T09:42:05;15.60;82.40
73137;DHT22;67767;45.636;11.756;2023-04-25T09:44:31;15.90;82.00
73137;DHT22;67767;45.636;11.756;2023-04-25T09:46:57;16.40;81.10
73137;DHT22;67767;45.636;11.756;2023-04-25T09:49:25;16.60;81.50
73137;DHT22;67767;45.636;11.756;2023-04-25T09:51:59;16.70;79.30
73137;DHT22;67767;45.636;11.756;2023-04-25T09:54:26;16.80;81.10
73137;DHT22;67767;45.636;11.756;2023-04-25T09:56:53;17.00;78.40
73137;DHT22;67767;45.636;11.756;2023-04-25T09:59:22;16.80;79.60
73137;DHT22;67767;45.636;11.756;2023-04-25T10:01:52;16.60;79.50
73137;DHT22;67767;45.636;11.756;2023-04-25T10:04:25;16.40;77.20
73137;DHT22;67767;45.636;11.756;2023-04-25T10:06:53;16.30;77.60
73137;DHT22;67767;45.636;11.756;2023-04-25T10:09:21;16.20;78.10
73137;DHT22;67767;45.636;11.756;2023-04-25T10:11:48;16.10;77.70
73137;DHT22;67767;45.636;11.756;2023-04-25T10:14:16;16.20;78.70
73137;DHT22;67767;45.636;11.756;2023-04-25T10:16:42;16.50;78.30
73137;DHT22;67767;45.636;11.756;2023-04-25T10:19:09;16.50;77.90
73137;DHT22;67767;45.636;11.756;2023-04-25T10:21:46;16.50;77.00
73137;DHT22;67767;45.636;11.756;2023-04-25T10:24:14;16.90;75.90
73137;DHT22;67767;45.636;11.756;2023-04-25T10:26:40;17.00;77.40
73137;DHT22;67767;45.636;11.756;2023-04-25T10:29:06;17.40;77.40
73137;DHT22;67767;45.636;11.756;2023-04-25T10:31:32;17.50;77.00
73137;DHT22;67767;45.636;11.756;2023-04-25T10:33:59;17.50;76.80
73137;DHT22;67767;45.636;11.756;2023-04-25T10:36:31;17.50;78.00
73137;DHT22;67767;45.636;11.756;2023-04-25T10:39:06;17.60;76.90
73137;DHT22;67767;45.636;11.756;2023-04-25T10:41:46;17.60;77.00
73137;DHT22;67767;45.636;11.756;2023-04-25T10:44:13;17.50;76.40
73137;DHT22;67767;45.636;11.756;2023-04-25T10:46:39;17.80;75.10
73137;DHT22;67767;45.636;11.756;2023-04-25T10:49:08;18.10;74.70
73137;DHT22;67767;45.636;11.756;2023-04-25T10:51:36;18.30;72.10
73137;DHT22;67767;45.636;11.756;2023-04-25T10:54:07;18.40;72.50
73137;DHT22;67767;45.636;11.756;2023-04-25T10:59:15;18.00;74.80
73137;DHT22;67767;45.636;11.756;2023-04-25T11:01:51;18.30;73.60
73137;DHT22;67767;45.636;11.756;2023-04-25T11:04:31;18.50;71.40
73137;DHT22;67767;45.636;11.756;2023-04-25T11:09:35;18.30;71.60
73137;DHT22;67767;45.636;11.756;2023-04-25T11:12:01;18.10;74.20
73137;DHT22;67767;45.636;11.756;2023-04-25T11:14:27;18.00;73.80
73137;DHT22;67767;45.636;11.756;2023-04-25T11:16:53;18.00;74.30
73137;DHT22;67767;45.636;11.756;2023-04-25T11:19:21;18.10;74.70
73137;DHT22;67767;45.636;11.756;2023-04-25T11:21:47;18.40;73.90
73137;DHT22;67767;45.636;11.756;2023-04-25T11:24:13;18.50;73.80
73137;DHT22;67767;45.636;11.756;2023-04-25T11:26:41;18.20;73.80
73137;DHT22;67767;45.636;11.756;2023-04-25T11:29:06;17.90;74.90
73137;DHT22;67767;45.636;11.756;2023-04-25T11:31:32;18.20;74.30
73137;DHT22;67767;45.636;11.756;2023-04-25T11:33:58;18.00;75.40
73137;DHT22;67767;45.636;11.756;2023-04-25T11:36:24;17.90;75.00
73137;DHT22;67767;45.636;11.756;2023-04-25T11:38:51;17.80;75.90
73137;DHT22;67767;45.636;11.756;2023-04-25T11:41:18;18.00;74.80
73137;DHT22;67767;45.636;11.756;2023-04-25T11:43:44;18.70;72.00
73137;DHT22;67767;45.636;11.756;2023-04-25T11:46:10;19.20;72.20
73137;DHT22;67767;45.636;11.756;2023-04-25T11:48:40;19.40;70.40
73137;DHT22;67767;45.636;11.756;2023-04-25T11:51:06;19.30;70.40
73137;DHT22;67767;45.636;11.756;2023-04-25T11:53:32;19.40;70.50
73137;DHT22;67767;45.636;11.756;2023-04-25T11:55:58;19.20;70.10
73137;DHT22;67767;45.636;11.756;2023-04-25T11:58:25;19.10;70.00
73137;DHT22;67767;45.636;11.756;2023-04-25T12:00:51;18.90;70.60
73137;DHT22;67767;45.636;11.756;2023-04-25T12:03:20;18.70;70.40
73137;DHT22;67767;45.636;11.756;2023-04-25T12:05:50;18.80;71.00
73137;DHT22;67767;45.636;11.756;2023-04-25T12:08:16;18.80;70.80
73137;DHT22;67767;45.636;11.756;2023-04-25T12:10:43;19.00;70.10
73137;DHT22;67767;45.636;11.756;2023-04-25T12:13:25;19.00;70.20
73137;DHT22;67767;45.636;11.756;2023-04-25T12:15:54;19.00;67.50
73137;DHT22;67767;45.636;11.756;2023-04-25T12:18:23;19.10;66.00
73137;DHT22;67767;45.636;11.756;2023-04-25T12:20:49;19.30;65.60
73137;DHT22;67767;45.636;11.756;2023-04-25T12:23:15;19.60;66.60
73137;DHT22;67767;45.636;11.756;2023-04-25T12:25:44;19.10;70.10
73137;DHT22;67767;45.636;11.756;2023-04-25T12:28:15;19.00;66.20
73137;DHT22;67767;45.636;11.756;2023-04-25T12:33:33;18.60;67.10
73137;DHT22;67767;45.636;11.756;2023-04-25T12:36:00;18.60;67.60
73137;DHT22;67767;45.636;11.756;2023-04-25T12:38:30;18.20;66.60
73137;DHT22;67767;45.636;11.756;2023-04-25T12:40:57;17.80;70.50
73137;DHT22;67767;45.636;11.756;2023-04-25T12:43:23;17.70;71.60
73137;DHT22;67767;45.636;11.756;2023-04-25T12:45:50;17.50;71.60
73137;DHT22;67767;45.636;11.756;2023-04-25T12:48:17;17.70;71.70
73137;DHT22;67767;45.636;11.756;2023-04-25T12:50:43;17.50;72.00
73137;DHT22;67767;45.636;11.756;2023-04-25T12:53:09;17.20;73.70
73137;DHT22;67767;45.636;11.756;2023-04-25T12:55:35;16.80;74.70
73137;DHT22;67767;45.636;11.756;2023-04-25T12:58:01;16.70;75.20
73137;DHT22;67767;45.636;11.756;2023-04-25T13:00:28;16.70;76.80
73137;DHT22;67767;45.636;11.756;2023-04-25T13:02:54;16.40;76.80
73137;DHT22;67767;45.636;11.756;2023-04-25T13:05:20;16.60;77.30
73137;DHT22;67767;45.636;11.756;2023-04-25T13:07:46;16.40;77.50
73137;DHT22;67767;45.636;11.756;2023-04-25T13:10:12;16.60;78.00
73137;DHT22;67767;45.636;11.756;2023-04-25T13:12:37;16.50;77.80
73137;DHT22;67767;45.636;11.756;2023-04-25T13:15:03;16.70;77.90
73137;DHT22;67767;45.636;11.756;2023-04-25T13:17:29;16.70;77.20
73137;DHT22;67767;45.636;11.756;2023-04-25T13:19:55;16.60;77.90
73137;DHT22;67767;45.636;11.756;2023-04-25T13:22:21;16.40;78.10
73137;DHT22;67767;45.636;11.756;2023-04-25T13:24:46;16.30;78.50
73137;DHT22;67767;45.636;11.756;2023-04-25T13:27:13;16.10;78.60
73137;DHT22;67767;45.636;11.756;2023-04-25T13:29:39;16.00;79.10
73137;DHT22;67767;45.636;11.756;2023-04-25T13:32:06;15.90;79.90
73137;DHT22;67767;45.636;11.756;2023-04-25T13:34:32;16.00;78.90
73137;DHT22;67767;45.636;11.756;2023-04-25T13:36:58;16.10;78.80
73137;DHT22;67767;45.636;11.756;2023-04-25T13:39:24;16.00;79.80
73137;DHT22;67767;45.636;11.756;2023-04-25T13:41:50;16.00;79.00
73137;DHT22;67767;45.636;11.756;2023-04-25T13:44:15;16.00;79.00
73137;DHT22;67767;45.636;11.756;2023-04-25T13:46:41;16.00;78.80
73137;DHT22;67767;45.636;11.756;2023-04-25T13:49:07;16.00;79.00
73137;DHT22;67767;45.636;11.756;2023-04-25T13:51:33;15.90;77.40
73137;DHT22;67767;45.636;11.756;2023-04-25T13:53:59;15.90;77.30
73137;DHT22;67767;45.636;11.756;2023-04-25T13:56:24;16.20;77.00
73137;DHT22;67767;45.636;11.756;2023-04-25T13:58:50;16.10;76.60
73137;DHT22;67767;45.636;11.756;2023-04-25T14:01:17;16.20;76.90
73137;DHT22;67767;45.636;11.756;2023-04-25T14:03:44;16.10;77.40
73137;DHT22;67767;45.636;11.756;2023-04-25T14:06:09;16.10;75.60
73137;DHT22;67767;45.636;11.756;2023-04-25T14:08:36;16.00;76.20
73137;DHT22;67767;45.636;11.756;2023-04-25T14:11:02;16.10;77.00
73137;DHT22;67767;45.636;11.756;2023-04-25T14:13:28;15.80;77.30
73137;DHT22;67767;45.636;11.756;2023-04-25T14:15:54;15.70;77.90
73137;DHT22;67767;45.636;11.756;2023-04-25T14:18:20;15.50;78.40
73137;DHT22;67767;45.636;11.756;2023-04-25T14:20:46;15.30;79.60
73137;DHT22;67767;45.636;11.756;2023-04-25T14:23:11;15.50;78.70
73137;DHT22;67767;45.636;11.756;2023-04-25T14:25:37;15.40;78.40
73137;DHT22;67767;45.636;11.756;2023-04-25T14:28:03;15.60;79.00
73137;DHT22;67767;45.636;11.756;2023-04-25T14:30:29;15.50;78.40
73137;DHT22;67767;45.636;11.756;2023-04-25T14:32:55;15.40;79.00
73137;DHT22;67767;45.636;11.756;2023-04-25T14:35:20;15.50;77.10
73137;DHT22;67767;45.636;11.756;2023-04-25T14:37:46;15.60;78.50
73137;DHT22;67767;45.636;11.756;2023-04-25T14:40:13;15.70;76.60
73137;DHT22;67767;45.636;11.756;2023-04-25T14:42:40;16.00;77.40
73137;DHT22;67767;45.636;11.756;2023-04-25T14:45:08;16.20;77.20
73137;DHT22;67767;45.636;11.756;2023-04-25T14:47:35;16.40;77.80
73137;DHT22;67767;45.636;11.756;2023-04-25T14:50:01;16.40;77.90
73137;DHT22;67767;45.636;11.756;2023-04-25T14:52:27;16.70;77.80
73137;DHT22;67767;45.636;11.756;2023-04-25T14:54:53;16.60;76.70
73137;DHT22;67767;45.636;11.756;2023-04-25T14:57:19;17.00;76.50
73137;DHT22;67767;45.636;11.756;2023-04-25T14:59:44;17.50;74.80
73137;DHT22;67767;45.636;11.756;2023-04-25T15:02:11;18.00;73.80
73137;DHT22;67767;45.636;11.756;2023-04-25T15:04:37;18.40;72.80
73137;DHT22;67767;45.636;11.756;2023-04-25T15:07:03;18.00;73.40
73137;DHT22;67767;45.636;11.756;2023-04-25T15:09:29;18.00;72.50
73137;DHT22;67767;45.636;11.756;2023-04-25T15:11:57;17.70;72.70
73137;DHT22;67767;45.636;11.756;2023-04-25T15:14:22;17.90;72.20
73137;DHT22;67767;45.636;11.756;2023-04-25T15:16:48;18.20;71.30
73137;DHT22;67767;45.636;11.756;2023-04-25T15:19:14;17.60;71.70
73137;DHT22;67767;45.636;11.756;2023-04-25T15:21:40;17.70;72.00